Time;durP1;ratioP1;P1;durP2;ratioP2;P2;SDS_P1;SDS_P2;PMS_P1;PMS_P2;Temp;Humidity;BMP_temperature;BMP_pressure;BME280_temperature;BME280_humidity;BME280_pressure;Samples;Min_cycle;Max_cycle;Signal;HPM_P1;HPM_P2
2022/11/18 00:00:50;;;;;;;5.53;1.27;;;8.40;99.90;;;;;;4985303;28;20053;-82
2022/11/18 00:03:15;;;;;;;3.88;1.00;;;8.40;99.90;;;;;;4921721;28;20046;-82
2022/11/18 00:05:41;;;;;;;4.40;1.27;;;8.40;99.90;;;;;;4965815;28;20086;-82
2022/11/18 00:08:06;;;;;;;8.63;1.75;;;8.40;99.90;;;;;;4936532;28;20034;-82
2022/11/18 00:10:32;;;;;;;2.55;1.52;;;8.50;99.90;;;;;;4948846;28;20043;-82
2022/11/18 00:15:45;;;;;;;3.67;1.27;;;8.50;99.90;;;;;;4963565;28;20106;-82
2022/11/18 00:18:10;;;;;;;2.60;1.05;;;8.30;99.90;;;;;;4938019;28;20071;-82
2022/11/18 00:20:38;;;;;;;4.38;1.08;;;8.50;99.90;;;;;;4951696;28;20035;-82
2022/11/18 00:23:03;;;;;;;4.15;1.30;;;8.50;99.90;;;;;;4970655;28;20069;-82
2022/11/18 00:25:29;;;;;;;4.20;1.30;;;8.50;99.90;;;;;;4943904;28;20086;-82
2022/11/18 00:27:54;;;;;;;3.03;1.35;;;8.50;99.90;;;;;;4978457;28;20037;-82
2022/11/18 00:30:20;;;;;;;2.45;1.48;;;8.40;99.90;;;;;;4934341;28;20034;-82
2022/11/18 00:32:45;;;;;;;7.15;1.70;;;8.50;99.90;;;;;;4953695;28;20038;-82
2022/11/18 00:35:11;;;;;;;7.60;1.60;;;8.50;99.90;;;;;;4951585;28;20049;-83
2022/11/18 00:37:36;;;;;;;4.80;1.60;;;8.40;99.90;;;;;;4949871;28;20394;-82
2022/11/18 00:40:02;;;;;;;4.97;2.03;;;8.40;99.90;;;;;;4952501;28;20066;-82
2022/11/18 00:45:12;;;;;;;8.57;1.83;;;8.40;99.90;;;;;;4965392;28;20828;-82
2022/11/18 00:47:38;;;;;;;6.35;1.98;;;8.50;99.90;;;;;;4928346;28;20027;-82
2022/11/18 00:50:03;;;;;;;7.63;1.52;;;8.40;99.90;;;;;;4965011;28;20026;-82
2022/11/18 00:52:29;;;;;;;3.47;0.85;;;8.40;99.90;;;;;;4920854;28;21044;-82
2022/11/18 00:54:55;;;;;;;3.42;1.35;;;8.50;99.90;;;;;;4950655;28;20034;-82
2022/11/18 00:57:20;;;;;;;4.05;1.88;;;8.50;99.90;;;;;;4934391;28;20036;-83
2022/11/18 00:59:46;;;;;;;3.75;1.38;;;8.40;99.90;;;;;;4942063;28;20023;-83
2022/11/18 01:02:11;;;;;;;6.88;2.28;;;8.30;99.90;;;;;;4967623;28;20031;-83
2022/11/18 01:04:37;;;;;;;8.15;2.22;;;8.40;99.90;;;;;;4962293;28;20406;-83
2022/11/18 01:07:02;;;;;;;7.00;2.17;;;8.40;99.90;;;;;;4932405;28;20096;-83
2022/11/18 01:09:28;;;;;;;9.60;3.75;;;8.30;99.90;;;;;;4948169;28;20157;-83
2022/11/18 01:14:38;;;;;;;7.45;2.63;;;8.30;99.90;;;;;;4960837;28;20081;-84
2022/11/18 01:17:04;;;;;;;5.25;2.15;;;8.30;99.90;;;;;;4951009;28;20038;-82
2022/11/18 01:19:29;;;;;;;6.57;2.05;;;8.30;99.90;;;;;;4949892;28;20031;-83
2022/11/18 01:22:01;;;;;;;5.43;2.00;;;8.20;99.90;;;;;;4951387;28;20123;-83
2022/11/18 01:24:28;;;;;;;6.90;2.15;;;8.30;99.90;;;;;;4950182;28;20034;-83
2022/11/18 01:26:53;;;;;;;5.95;2.20;;;8.30;99.90;;;;;;4951216;28;20181;-84
2022/11/18 01:29:19;;;;;;;2.42;1.42;;;8.30;99.90;;;;;;4928057;28;20553;-83
2022/11/18 01:31:44;;;;;;;4.20;1.52;;;8.30;99.90;;;;;;4964733;28;20028;-83
2022/11/18 01:34:10;;;;;;;2.70;1.25;;;8.40;99.90;;;;;;4957877;28;20407;-82
2022/11/18 01:36:36;;;;;;;6.82;1.85;;;8.40;99.90;;;;;;4932160;28;20395;-82
2022/11/18 01:39:01;;;;;;;4.60;2.00;;;8.50;99.90;;;;;;4931741;28;20034;-83
2022/11/18 01:41:28;;;;;;;6.70;1.95;;;8.40;99.90;;;;;;4937718;28;20121;-82
2022/11/18 01:43:57;;;;;;;3.55;1.70;;;8.20;99.90;;;;;;4978534;28;20050;-83
2022/11/18 01:46:24;;;;;;;8.88;2.00;;;8.20;99.90;;;;;;4957858;28;20039;-82
2022/11/18 01:49:16;;;;;;;7.80;3.03;;;8.20;99.90;;;;;;4950335;28;20031;-83
2022/11/18 01:51:48;;;;;;;5.05;1.75;;;8.10;99.90;;;;;;4964738;28;20361;-84
2022/11/18 01:54:19;;;;;;;7.57;2.10;;;8.10;99.90;;;;;;4962535;28;20046;-83
2022/11/18 01:56:47;;;;;;;5.93;1.75;;;8.00;99.90;;;;;;4949214;28;20035;-83
2022/11/18 01:59:16;;;;;;;3.35;1.75;;;8.00;99.90;;;;;;4969844;28;20113;-82
2022/11/18 02:01:41;;;;;;;4.88;1.85;;;7.90;99.90;;;;;;4928509;28;20093;-82
2022/11/18 02:04:07;;;;;;;2.85;1.30;;;7.90;99.90;;;;;;4940374;28;20027;-82
2022/11/18 02:06:32;;;;;;;9.13;1.83;;;7.90;99.90;;;;;;4952200;28;20055;-83
2022/11/18 02:08:58;;;;;;;7.10;1.98;;;7.80;99.90;;;;;;4937995;28;20066;-82
2022/11/18 02:14:08;;;;;;;2.80;1.58;;;7.80;99.90;;;;;;4940913;28;20066;-82
2022/11/18 02:16:50;;;;;;;2.08;1.23;;;7.80;99.90;;;;;;4935259;28;20062;-82
2022/11/18 02:19:33;;;;;;;5.03;1.65;;;7.90;99.90;;;;;;4934856;28;20039;-83
2022/11/18 02:22:29;;;;;;;5.93;2.20;;;7.90;99.90;;;;;;4948395;28;20418;-82
2022/11/18 02:25:06;;;;;;;6.50;2.20;;;7.80;99.90;;;;;;4951151;28;20043;-83
2022/11/18 02:27:53;;;;;;;2.95;1.67;;;7.70;99.90;;;;;;4968952;28;20104;-82
2022/11/18 02:30:19;;;;;;;6.45;2.47;;;7.70;99.90;;;;;;4961311;28;20061;-82
2022/11/18 02:32:53;;;;;;;8.25;2.40;;;7.60;99.90;;;;;;4948911;28;20067;-82
2022/11/18 02:35:47;;;;;;;5.95;2.20;;;7.60;99.90;;;;;;4934678;28;20080;-82
2022/11/18 02:38:22;;;;;;;7.70;2.33;;;7.50;99.90;;;;;;4923830;28;20104;-82
2022/11/18 02:41:08;;;;;;;7.32;2.03;;;7.50;99.90;;;;;;4922281;28;20210;-82
2022/11/18 02:43:37;;;;;;;7.45;2.55;;;7.40;99.90;;;;;;4921349;28;20030;-82
2022/11/18 02:46:05;;;;;;;3.72;2.00;;;7.40;99.90;;;;;;4981468;28;20596;-82
2022/11/18 02:48:32;;;;;;;7.82;2.35;;;7.40;99.90;;;;;;4937222;28;20034;-83
2022/11/18 02:50:57;;;;;;;9.93;4.00;;;7.40;99.90;;;;;;4952275;28;20368;-84
2022/11/18 02:53:23;;;;;;;10.60;4.68;;;7.40;99.90;;;;;;4936042;28;20029;-82
2022/11/18 02:55:48;;;;;;;5.68;3.45;;;7.50;99.90;;;;;;4968792;28;20041;-82
2022/11/18 02:58:15;;;;;;;9.18;3.17;;;7.50;99.90;;;;;;4968368;28;20098;-82
2022/11/18 03:00:41;;;;;;;13.70;4.85;;;7.50;99.90;;;;;;4938745;28;20057;-83
2022/11/18 03:03:26;;;;;;;11.63;2.50;;;7.50;99.90;;;;;;4938479;28;20058;-82
2022/11/18 03:06:21;;;;;;;5.30;2.00;;;7.60;99.90;;;;;;4934684;28;20043;-82
2022/11/18 03:08:57;;;;;;;4.97;2.25;;;7.60;99.90;;;;;;4976743;28;20047;-83
2022/11/18 03:11:24;;;;;;;7.75;5.30;;;7.70;99.90;;;;;;4966696;28;20398;-82
2022/11/18 03:14:00;;;;;;;9.00;4.18;;;7.70;99.90;;;;;;4945736;28;20513;-82
2022/11/18 03:16:30;;;;;;;11.40;4.45;;;7.70;99.90;;;;;;4963659;28;20398;-82
2022/11/18 03:19:00;;;;;;;11.15;3.97;;;7.70;99.90;;;;;;4961894;28;20675;-84
2022/11/18 03:21:33;;;;;;;10.48;4.22;;;7.60;99.90;;;;;;4935535;28;20038;-83
2022/11/18 03:24:13;;;;;;;8.80;4.10;;;7.60;99.90;;;;;;4979139;28;20515;-87
2022/11/18 03:26:40;;;;;;;8.65;3.55;;;7.70;99.90;;;;;;4953903;28;20035;-87
2022/11/18 03:29:22;;;;;;;8.43;4.25;;;7.70;99.90;;;;;;4965594;28;20062;-86
2022/11/18 03:32:11;;;;;;;7.95;2.35;;;7.70;99.90;;;;;;4968601;28;20031;-86
2022/11/18 03:35:04;;;;;;;10.32;2.70;;;7.70;99.90;;;;;;4948608;28;20556;-86
2022/11/18 03:37:31;;;;;;;3.33;2.35;;;7.70;99.90;;;;;;4950999;28;20046;-86
2022/11/18 03:40:03;;;;;;;7.95;2.50;;;7.70;99.90;;;;;;4952775;28;20046;-87
2022/11/18 03:42:32;;;;;;;7.13;2.70;;;7.80;99.90;;;;;;4951308;28;20042;-87
2022/11/18 03:45:05;;;;;;;8.73;2.28;;;7.80;99.90;;;;;;4968996;28;20049;-86
2022/11/18 03:47:35;;;;;;;10.32;2.70;;;7.80;99.90;;;;;;4948890;28;20114;-85
2022/11/18 03:50:06;;;;;;;8.00;3.05;;;7.80;99.90;;;;;;4935184;28;20039;-86
2022/11/18 03:52:32;;;;;;;5.90;3.25;;;7.80;99.90;;;;;;4968235;28;20038;-82
2022/11/18 03:54:59;;;;;;;5.72;3.10;;;7.80;99.90;;;;;;4966803;28;20035;-82
2022/11/18 03:57:31;;;;;;;10.32;3.20;;;7.80;99.90;;;;;;4922642;28;20027;-83
2022/11/18 04:00:06;;;;;;;5.80;3.05;;;7.80;99.90;;;;;;4947697;28;20387;-82
2022/11/18 04:02:31;;;;;;;5.68;2.38;;;7.80;99.90;;;;;;4939064;28;20027;-82
2022/11/18 04:04:57;;;;;;;7.75;2.70;;;7.90;99.90;;;;;;4948754;28;20050;-82
2022/11/18 04:07:41;;;;;;;8.68;4.00;;;7.90;99.90;;;;;;4945499;28;20035;-82
2022/11/18 04:10:17;;;;;;;7.28;3.35;;;7.80;99.90;;;;;;4968866;28;20125;-82
2022/11/18 04:13:03;;;;;;;9.85;2.97;;;7.80;99.90;;;;;;4935066;28;20395;-83
2022/11/18 04:15:30;;;;;;;11.30;4.15;;;7.80;99.90;;;;;;4949545;28;20486;-82
2022/11/18 04:17:55;;;;;;;3.70;2.40;;;7.80;99.90;;;;;;4979713;28;20047;-82
2022/11/18 04:20:21;;;;;;;5.43;2.50;;;7.80;99.90;;;;;;4951724;28;20505;-82
2022/11/18 04:22:47;;;;;;;8.35;3.60;;;7.90;99.90;;;;;;4952583;28;20046;-83
2022/11/18 04:25:12;;;;;;;6.68;2.67;;;7.90;99.90;;;;;;4953335;28;20038;-82
2022/11/18 04:27:38;;;;;;;11.38;3.00;;;7.80;99.90;;;;;;4949263;28;20482;-82
2022/11/18 04:30:05;;;;;;;10.88;3.00;;;7.90;99.90;;;;;;4951949;28;20482;-82
2022/11/18 04:32:30;;;;;;;13.70;3.40;;;7.90;99.90;;;;;;4947578;28;20089;-83
2022/11/18 04:34:56;;;;;;;9.65;3.42;;;7.90;99.90;;;;;;4932650;28;20035;-82
2022/11/18 04:37:22;;;;;;;9.25;2.88;;;7.90;99.90;;;;;;4936121;28;20031;-83
2022/11/18 04:39:47;;;;;;;10.75;3.10;;;7.90;99.90;;;;;;4976805;28;20028;-83
2022/11/18 04:42:13;;;;;;;6.95;2.50;;;7.80;99.90;;;;;;4945994;28;20122;-83
2022/11/18 04:44:38;;;;;;;12.02;3.15;;;7.80;99.90;;;;;;4948026;28;20034;-83
2022/11/18 04:47:05;;;;;;;8.40;2.80;;;7.80;99.90;;;;;;4953387;28;20391;-83
2022/11/18 04:49:30;;;;;;;5.38;2.50;;;7.80;99.90;;;;;;4959328;28;20136;-84
2022/11/18 04:51:56;;;;;;;8.57;3.35;;;7.80;99.90;;;;;;4976926;28;20363;-83
2022/11/18 04:54:22;;;;;;;4.32;2.00;;;7.80;99.90;;;;;;4936133;28;20035;-83
2022/11/18 04:56:48;;;;;;;13.50;3.85;;;7.80;99.90;;;;;;4952405;28;20405;-83
2022/11/18 04:59:13;;;;;;;10.55;3.20;;;7.80;99.90;;;;;;4934222;28;20034;-83
2022/11/18 05:01:39;;;;;;;5.95;4.10;;;7.70;99.90;;;;;;4932156;28;20062;-83
2022/11/18 05:04:05;;;;;;;7.70;2.78;;;7.70;99.90;;;;;;4936507;28;20479;-82
2022/11/18 05:06:30;;;;;;;9.90;4.10;;;7.70;99.90;;;;;;4952351;28;20035;-82
2022/11/18 05:08:57;;;;;;;6.80;3.67;;;7.70;99.90;;;;;;4948164;28;20102;-83
2022/11/18 05:14:06;;;;;;;6.68;2.78;;;7.60;99.90;;;;;;4966524;28;20118;-83
2022/11/18 05:16:32;;;;;;;6.80;3.10;;;7.50;99.90;;;;;;4949011;28;20117;-83
2022/11/18 05:18:57;;;;;;;5.45;3.08;;;7.50;99.90;;;;;;4954473;28;20474;-83
2022/11/18 05:21:23;;;;;;;16.90;5.88;;;7.50;99.90;;;;;;4937466;28;20086;-82
2022/11/18 05:23:48;;;;;;;4.10;2.65;;;7.50;99.90;;;;;;4952170;28;20434;-83
2022/11/18 05:26:14;;;;;;;7.50;2.80;;;7.60;99.90;;;;;;4952362;28;20457;-82
2022/11/18 05:28:39;;;;;;;8.10;2.45;;;7.60;99.90;;;;;;4968416;28;20081;-82
2022/11/18 05:31:09;;;;;;;11.32;3.20;;;7.60;99.90;;;;;;4952329;28;20475;-82
2022/11/18 05:33:35;;;;;;;13.50;3.80;;;7.60;99.90;;;;;;4949285;28;20050;-82
2022/11/18 05:36:14;;;;;;;4.20;2.45;;;7.60;99.90;;;;;;4954502;28;20487;-83
2022/11/18 05:38:39;;;;;;;10.95;4.32;;;7.60;99.90;;;;;;4931000;28;20039;-83
2022/11/18 05:41:05;;;;;;;10.02;3.88;;;7.60;99.90;;;;;;4946982;28;20043;-83
2022/11/18 05:43:31;;;;;;;12.05;3.10;;;7.60;99.90;;;;;;4926146;28;20031;-83
2022/11/18 05:45:56;;;;;;;12.27;3.03;;;7.70;99.90;;;;;;4967589;28;20038;-83
2022/11/18 05:48:22;;;;;;;7.43;3.53;;;7.70;99.90;;;;;;4928910;28;20546;-83
2022/11/18 05:50:49;;;;;;;6.25;2.13;;;7.80;99.90;;;;;;4966054;28;20054;-83
2022/11/18 05:53:15;;;;;;;8.15;3.17;;;7.80;99.90;;;;;;4977364;28;20549;-83
2022/11/18 05:56:00;;;;;;;11.90;3.55;;;7.80;99.90;;;;;;4933577;28;20042;-83
2022/11/18 05:58:26;;;;;;;7.07;3.33;;;7.80;99.90;;;;;;4951217;28;20031;-83
2022/11/18 06:00:53;;;;;;;15.32;3.72;;;7.80;99.90;;;;;;4950456;28;20038;-83
2022/11/18 06:03:21;;;;;;;12.00;3.67;;;7.90;99.90;;;;;;4949309;28;20487;-83
2022/11/18 06:05:46;;;;;;;12.68;3.40;;;7.80;99.90;;;;;;4948521;28;20039;-83
2022/11/18 06:08:12;;;;;;;13.65;5.75;;;7.80;99.90;;;;;;4965348;28;20034;-82
2022/11/18 06:10:38;;;;;;;9.65;3.80;;;7.80;99.90;;;;;;4923289;28;20478;-83
2022/11/18 06:13:05;;;;;;;11.65;4.57;;;7.80;99.90;;;;;;4930030;28;20028;-82
2022/11/18 06:15:34;;;;;;;10.52;2.47;;;7.80;99.90;;;;;;4965791;28;20024;-83
2022/11/18 06:18:20;;;;;;;7.13;3.20;;;7.70;99.90;;;;;;4935960;28;20066;-83
2022/11/18 06:20:46;;;;;;;;;;;7.80;99.90;;;;;;4965878;28;20042;-83
2022/11/18 06:23:11;;;;;;;6.10;3.77;;;7.80;99.90;;;;;;4949231;28;20338;-83
2022/11/18 06:25:37;;;;;;;6.90;3.00;;;7.80;99.90;;;;;;4948312;28;20023;-83
2022/11/18 06:28:03;;;;;;;5.90;4.03;;;7.80;99.90;;;;;;4971743;28;20447;-83
2022/11/18 06:30:29;;;;;;;7.18;3.10;;;7.80;99.90;;;;;;4934435;28;20041;-83
2022/11/18 06:32:54;;;;;;;6.30;3.00;;;7.80;99.90;;;;;;4950277;28;20069;-83
2022/11/18 06:35:20;;;;;;;9.80;4.18;;;7.80;99.90;;;;;;4933662;28;20039;-83
2022/11/18 06:37:46;;;;;;;8.02;3.22;;;7.80;99.90;;;;;;4924233;28;20066;-83
2022/11/18 06:40:13;;;;;;;6.13;2.28;;;7.80;99.90;;;;;;4961471;28;20032;-83
2022/11/18 06:45:22;;;;;;;4.22;2.15;;;7.80;99.90;;;;;;4967759;28;20030;-83
2022/11/18 06:47:48;;;;;;;12.65;3.58;;;7.90;99.90;;;;;;4929925;28;20026;-83
2022/11/18 06:50:13;;;;;;;9.95;3.20;;;7.90;99.90;;;;;;4953203;28;20383;-83
2022/11/18 06:52:39;;;;;;;7.97;2.75;;;8.00;99.90;;;;;;4951612;28;20440;-83
2022/11/18 06:55:07;;;;;;;7.50;2.95;;;8.00;99.90;;;;;;4953973;28;20027;-84
2022/11/18 06:57:33;;;;;;;8.57;2.72;;;8.00;99.90;;;;;;4934511;28;20414;-83
2022/11/18 06:59:59;;;;;;;7.18;2.90;;;8.10;99.90;;;;;;4951838;28;20105;-83
2022/11/18 07:02:24;;;;;;;10.77;3.42;;;8.10;99.90;;;;;;4968666;28;20114;-82
2022/11/18 07:04:50;;;;;;;6.65;2.88;;;8.20;99.90;;;;;;4952231;28;20027;-83
2022/11/18 07:07:15;;;;;;;5.00;2.83;;;8.20;99.90;;;;;;4922375;28;20023;-83
2022/11/18 07:09:41;;;;;;;6.28;2.90;;;8.20;99.90;;;;;;4952912;28;20051;-83
2022/11/18 07:12:07;;;;;;;10.05;3.75;;;8.20;99.90;;;;;;4951780;28;20486;-83
2022/11/18 07:14:32;;;;;;;6.28;3.15;;;8.10;99.90;;;;;;4981262;28;20481;-83
2022/11/18 07:16:58;;;;;;;8.57;4.20;;;8.20;99.90;;;;;;4952570;28;20127;-83
2022/11/18 07:19:23;;;;;;;6.15;2.90;;;8.20;99.90;;;;;;4967000;28;20031;-83
2022/11/18 07:21:49;;;;;;;5.13;2.25;;;8.20;99.90;;;;;;4953381;28;20042;-83
2022/11/18 07:24:14;;;;;;;7.00;3.38;;;8.20;99.90;;;;;;4944747;28;20035;-83
2022/11/18 07:26:40;;;;;;;12.48;3.55;;;8.30;99.90;;;;;;4930960;28;20505;-83
2022/11/18 07:29:06;;;;;;;7.78;2.53;;;8.30;99.90;;;;;;4970927;28;20105;-84
2022/11/18 07:31:33;;;;;;;4.65;2.47;;;8.40;99.90;;;;;;4953381;28;20078;-83
2022/11/18 07:33:59;;;;;;;8.95;3.83;;;8.40;99.90;;;;;;4950027;28;20085;-82
2022/11/18 07:36:26;;;;;;;6.13;2.63;;;8.50;99.90;;;;;;4955707;28;20052;-84
2022/11/18 07:38:52;;;;;;;6.63;2.33;;;8.40;99.90;;;;;;4968170;28;20549;-84
2022/11/18 07:41:19;;;;;;;7.45;2.40;;;8.40;99.90;;;;;;4954721;28;20122;-83
2022/11/18 07:43:44;;;;;;;9.45;2.72;;;8.40;99.90;;;;;;4939697;28;20027;-83
2022/11/18 07:46:10;;;;;;;6.35;3.08;;;8.50;99.90;;;;;;4944811;28;20037;-83
2022/11/18 07:48:36;;;;;;;6.00;2.53;;;8.40;99.90;;;;;;4955100;28;20038;-84
2022/11/18 07:51:02;;;;;;;4.72;2.47;;;8.50;99.90;;;;;;4941126;28;20031;-83
2022/11/18 07:53:30;;;;;;;7.78;3.42;;;8.50;99.90;;;;;;4938955;28;20139;-84
2022/11/18 07:55:55;;;;;;;7.38;2.88;;;8.50;99.90;;;;;;4935483;28;20086;-85
2022/11/18 07:58:21;;;;;;;4.43;2.30;;;8.60;99.90;;;;;;4932750;28;20031;-84
2022/11/18 08:00:46;;;;;;;6.82;2.60;;;8.60;99.90;;;;;;4928857;28;20023;-83
2022/11/18 08:03:12;;;;;;;5.30;2.22;;;8.60;99.90;;;;;;4937136;28;20045;-83
2022/11/18 08:05:37;;;;;;;4.13;2.70;;;8.60;99.90;;;;;;4951802;28;20023;-84
2022/11/18 08:08:03;;;;;;;4.90;2.42;;;8.70;99.90;;;;;;4977857;28;20027;-83
2022/11/18 08:10:28;;;;;;;7.50;2.75;;;8.70;99.90;;;;;;4968417;28;20081;-84
2022/11/18 08:13:01;;;;;;;7.22;2.80;;;8.70;99.90;;;;;;4935382;28;20047;-85
2022/11/18 08:15:26;;;;;;;3.55;2.00;;;8.70;99.90;;;;;;4917995;28;20110;-84
2022/11/18 08:17:52;;;;;;;4.65;2.22;;;8.70;99.90;;;;;;4953631;28;20149;-84
2022/11/18 08:20:17;;;;;;;4.82;2.10;;;8.70;99.90;;;;;;4933381;28;20441;-84
2022/11/18 08:22:43;;;;;;;6.30;3.03;;;8.80;99.90;;;;;;4950049;28;20039;-84
2022/11/18 08:25:09;;;;;;;7.10;2.33;;;8.80;99.90;;;;;;4954556;28;20035;-84
2022/11/18 08:27:34;;;;;;;13.23;3.45;;;8.80;99.90;;;;;;4933775;28;20454;-84
2022/11/18 08:30:00;;;;;;;3.88;2.13;;;8.80;99.90;;;;;;4926857;28;20027;-84
2022/11/18 08:32:25;;;;;;;6.35;3.10;;;8.80;99.90;;;;;;4953473;28;20031;-83
2022/11/18 08:34:51;;;;;;;5.80;3.17;;;8.90;99.90;;;;;;4973222;28;20411;-84
2022/11/18 08:37:16;;;;;;;5.38;3.15;;;9.00;99.90;;;;;;4936239;28;20494;-84
2022/11/18 08:39:42;;;;;;;3.88;2.20;;;9.00;99.90;;;;;;4967316;28;20042;-84
2022/11/18 08:42:08;;;;;;;8.38;2.72;;;9.00;99.90;;;;;;4970577;28;20065;-84
2022/11/18 08:44:34;;;;;;;6.72;2.85;;;9.00;99.90;;;;;;4970475;28;20027;-84
2022/11/18 08:46:59;;;;;;;4.93;2.60;;;9.10;99.90;;;;;;4955892;28;20035;-85
2022/11/18 08:49:25;;;;;;;7.85;3.53;;;9.10;99.90;;;;;;4934061;28;20042;-84
2022/11/18 08:51:50;;;;;;;4.40;2.13;;;9.20;99.90;;;;;;4970565;28;20043;-83
2022/11/18 08:54:16;;;;;;;9.48;3.20;;;9.30;99.90;;;;;;4970336;28;20023;-84
2022/11/18 08:56:41;;;;;;;4.75;2.53;;;9.30;99.90;;;;;;4954720;28;20039;-85
2022/11/18 08:59:07;;;;;;;3.17;2.30;;;9.30;99.90;;;;;;4950602;28;20034;-84
2022/11/18 09:01:35;;;;;;;7.53;2.80;;;9.30;99.90;;;;;;4970555;28;20034;-84
2022/11/18 09:04:00;;;;;;;4.90;2.08;;;9.50;99.90;;;;;;4953085;28;20035;-84
2022/11/18 09:06:26;;;;;;;4.57;2.78;;;9.60;99.90;;;;;;4938345;28;20077;-84
2022/11/18 09:08:52;;;;;;;7.13;3.25;;;9.40;99.90;;;;;;4954754;28;20078;-85
2022/11/18 09:11:22;;;;;;;3.75;2.05;;;9.50;99.90;;;;;;4937042;28;20113;-83
2022/11/18 09:13:57;;;;;;;5.32;2.15;;;9.50;99.90;;;;;;4952996;28;20085;-83
2022/11/18 09:16:24;;;;;;;4.53;2.38;;;9.60;99.90;;;;;;4968991;28;20096;-82
2022/11/18 09:18:50;;;;;;;6.43;2.33;;;9.60;99.90;;;;;;4986296;28;20035;-83
2022/11/18 09:21:16;;;;;;;6.20;2.28;;;9.70;99.90;;;;;;4956258;28;20062;-84
2022/11/18 09:23:41;;;;;;;5.25;2.40;;;9.70;99.90;;;;;;4955412;28;20045;-82
2022/11/18 09:26:11;;;;;;;8.05;2.70;;;9.70;99.90;;;;;;4952237;28;20863;-83
2022/11/18 09:28:37;;;;;;;5.35;2.78;;;9.90;99.90;;;;;;4950773;28;20110;-83
2022/11/18 09:31:04;;;;;;;3.55;2.08;;;9.90;99.90;;;;;;4967586;28;20062;-83
2022/11/18 09:33:29;;;;;;;6.20;2.78;;;9.90;99.90;;;;;;4945514;28;20482;-83
2022/11/18 09:35:55;;;;;;;6.78;2.13;;;9.90;99.90;;;;;;4975129;28;20047;-83
2022/11/18 09:38:20;;;;;;;3.88;2.17;;;10.00;99.90;;;;;;4952582;28;20034;-83
2022/11/18 09:40:52;;;;;;;10.02;3.33;;;10.10;99.90;;;;;;4951916;28;20024;-83
2022/11/18 09:43:54;;;;;;;6.55;2.45;;;10.10;99.90;;;;;;4967784;28;20030;-83
2022/11/18 09:46:29;;;;;;;5.03;2.47;;;10.10;99.90;;;;;;4978870;28;20039;-83
2022/11/18 09:49:12;;;;;;;6.03;2.13;;;10.20;99.90;;;;;;4951050;28;20465;-83
2022/11/18 09:51:41;;;;;;;4.70;2.20;;;10.20;99.90;;;;;;4935571;28;20035;-83
2022/11/18 09:54:31;;;;;;;6.40;2.65;;;10.20;99.90;;;;;;4976815;28;20050;-83
2022/11/18 09:56:56;;;;;;;4.57;2.08;;;10.30;99.90;;;;;;4948731;28;20039;-84
2022/11/18 09:59:23;;;;;;;8.45;2.92;;;10.30;99.90;;;;;;4946584;28;20023;-83
2022/11/18 10:01:49;;;;;;;9.63;3.47;;;10.40;99.90;;;;;;4947582;28;20035;-83
2022/11/18 10:04:16;;;;;;;7.38;2.20;;;10.60;99.90;;;;;;4950204;28;20041;-84
2022/11/18 10:06:43;;;;;;;5.40;2.35;;;10.50;99.90;;;;;;4947668;28;20065;-84
2022/11/18 10:09:31;;;;;;;1.65;1.40;;;10.60;99.90;;;;;;4935312;28;20050;-83
2022/11/18 10:12:15;;;;;;;4.65;1.90;;;10.60;99.90;;;;;;4964894;28;20581;-83
2022/11/18 10:14:41;;;;;;;5.30;2.40;;;10.60;99.90;;;;;;4945349;28;20568;-84
2022/11/18 10:17:17;;;;;;;6.78;2.65;;;10.70;99.90;;;;;;4965683;28;20040;-84
2022/11/18 10:19:56;;;;;;;10.63;2.90;;;10.70;99.90;;;;;;4936265;28;20039;-82
2022/11/18 10:22:43;;;;;;;3.70;2.20;;;10.70;99.90;;;;;;4956189;28;20394;-83
2022/11/18 10:25:15;;;;;;;5.75;2.30;;;10.80;99.90;;;;;;4943823;28;20727;-84
2022/11/18 10:27:42;;;;;;;4.47;2.33;;;10.90;99.90;;;;;;4924079;28;20061;-84
2022/11/18 10:30:14;;;;;;;4.10;2.05;;;11.00;99.90;;;;;;4954412;28;20030;-83
2022/11/18 10:33:00;;;;;;;5.32;2.05;;;11.20;99.90;;;;;;4954929;28;20138;-83
2022/11/18 10:35:35;;;;;;;9.48;1.90;;;11.10;99.90;;;;;;4938830;28;20023;-83
2022/11/18 10:38:06;;;;;;;3.97;2.17;;;11.30;99.90;;;;;;4955164;28;20506;-84
2022/11/18 10:40:32;;;;;;;3.95;1.60;;;11.20;99.90;;;;;;4950672;28;20031;-84
2022/11/18 10:42:58;;;;;;;4.78;2.10;;;11.20;99.90;;;;;;4981473;28;20031;-83
2022/11/18 10:45:30;;;;;;;2.08;1.13;;;11.20;99.90;;;;;;4955187;28;20126;-84
2022/11/18 10:47:57;;;;;;;4.72;1.58;;;11.40;99.90;;;;;;4970254;28;20093;-84
2022/11/18 10:50:41;;;;;;;5.13;1.75;;;11.40;99.90;;;;;;4937886;28;20027;-84
2022/11/18 10:53:33;;;;;;;5.18;2.10;;;11.50;99.90;;;;;;4970820;28;20035;-84
2022/11/18 10:56:03;;;;;;;6.38;2.00;;;11.80;99.90;;;;;;4936298;28;20034;-84
2022/11/18 10:58:33;;;;;;;6.68;2.00;;;12.00;99.90;;;;;;4935855;28;20636;-83
2022/11/18 11:01:21;;;;;;;7.85;1.65;;;12.10;99.90;;;;;;4934341;28;20483;-84
2022/11/18 11:04:15;;;;;;;7.03;1.48;;;12.30;99.90;;;;;;4934955;28;20085;-84
2022/11/18 11:06:41;;;;;;;3.47;1.73;;;12.00;99.90;;;;;;4954073;28;20031;-84
2022/11/18 11:09:08;;;;;;;4.10;1.65;;;11.70;99.90;;;;;;4938660;28;20450;-83
2022/11/18 11:11:36;;;;;;;5.50;2.08;;;12.00;99.90;;;;;;4935233;28;20039;-84
2022/11/18 11:14:21;;;;;;;6.35;2.88;;;12.00;99.90;;;;;;4964121;28;20034;-84
2022/11/18 11:16:51;;;;;;;10.90;2.53;;;12.20;99.90;;;;;;4956449;28;20041;-84
2022/11/18 11:19:18;;;;;;;6.85;1.60;;;12.30;99.90;;;;;;4942018;28;20035;-84
2022/11/18 11:21:44;;;;;;;7.00;2.92;;;12.30;99.90;;;;;;4923588;28;20027;-84
2022/11/18 11:24:11;;;;;;;4.90;1.55;;;12.40;99.90;;;;;;4953108;28;20042;-85
2022/11/18 11:26:49;;;;;;;8.35;1.90;;;12.20;99.90;;;;;;4965960;28;20042;-84
2022/11/18 11:29:31;;;;;;;3.78;1.23;;;12.40;99.90;;;;;;4954914;28;20098;-84
2022/11/18 11:32:19;;;;;;;8.95;2.10;;;12.10;99.90;;;;;;4952908;28;20078;-84
2022/11/18 11:34:55;;;;;;;3.55;1.50;;;12.30;99.90;;;;;;4943364;28;20039;-84
2022/11/18 11:37:25;;;;;;;;;;;12.10;99.90;;;;;;4938323;28;20035;-84
2022/11/18 11:40:25;;;;;;;2.85;1.45;;;12.10;99.90;;;;;;4960438;28;20370;-84
2022/11/18 11:43:08;;;;;;;5.38;1.42;;;12.10;99.90;;;;;;4950920;28;20445;-83
2022/11/18 11:45:46;;;;;;;7.70;2.20;;;12.20;99.90;;;;;;4962913;28;20031;-84
2022/11/18 11:48:22;;;;;;;5.05;1.63;;;12.30;99.90;;;;;;4985439;28;20045;-83
2022/11/18 11:50:58;;;;;;;7.80;2.15;;;12.60;99.90;;;;;;4937921;28;20031;-84
2022/11/18 11:53:26;;;;;;;7.18;1.83;;;12.70;99.90;;;;;;4952738;28;20098;-84
2022/11/18 11:56:07;;;;;;;9.07;2.53;;;12.50;99.90;;;;;;4962987;28;20528;-84
2022/11/18 11:58:59;;;;;;;3.90;1.02;;;12.80;99.90;;;;;;4946271;28;20651;-84
2022/11/18 12:01:43;;;;;;;5.88;1.75;;;12.90;99.90;;;;;;4939844;28;20023;-84
2022/11/18 12:04:27;;;;;;;4.78;1.52;;;12.90;99.90;;;;;;4961440;28;20054;-84
2022/11/18 12:06:53;;;;;;;5.82;1.70;;;12.80;99.90;;;;;;4943926;28;20030;-85
2022/11/18 12:09:31;;;;;;;3.75;1.38;;;13.00;99.90;;;;;;4966567;28;20069;-84
2022/11/18 12:12:34;;;;;;;4.25;1.40;;;13.00;99.90;;;;;;4958182;28;20397;-84
2022/11/18 12:15:19;;;;;;;4.90;1.70;;;12.90;99.90;;;;;;4977311;28;20032;-84
2022/11/18 12:18:10;;;;;;;8.85;1.58;;;12.90;99.90;;;;;;4936831;28;20093;-84
2022/11/18 12:20:41;;;;;;;7.28;1.90;;;13.00;99.90;;;;;;4959138;28;20038;-83
2022/11/18 12:23:15;;;;;;;7.20;1.60;;;13.20;99.90;;;;;;4954274;28;20053;-84
2022/11/18 12:25:46;;;;;;;9.00;1.75;;;13.40;99.90;;;;;;4948955;28;20545;-84
2022/11/18 12:28:40;;;;;;;8.60;1.45;;;13.40;99.90;;;;;;4948817;28;21553;-84
2022/11/18 12:31:17;;;;;;;9.15;1.92;;;13.30;99.90;;;;;;4967469;28;20043;-85
2022/11/18 12:33:46;;;;;;;4.85;1.90;;;13.20;99.90;;;;;;4950392;28;20045;-85
2022/11/18 12:36:31;;;;;;;6.20;1.73;;;13.20;99.90;;;;;;4964703;28;20086;-84
2022/11/18 12:38:58;;;;;;;7.57;1.40;;;13.10;99.90;;;;;;4915370;28;20039;-84
2022/11/18 12:44:24;;;;;;;4.18;1.70;;;13.00;99.90;;;;;;4961892;28;20089;-84
2022/11/18 12:46:51;;;;;;;4.53;1.40;;;13.10;99.90;;;;;;4934252;28;20035;-84
2022/11/18 12:49:25;;;;;;;5.68;1.45;;;13.20;99.90;;;;;;4951019;28;20057;-84
2022/11/18 12:51:51;;;;;;;5.93;1.80;;;13.30;99.90;;;;;;4959149;28;20030;-84
2022/11/18 12:55:00;;;;;;;5.90;1.30;;;13.40;99.90;;;;;;4935786;28;20058;-84
2022/11/18 12:57:31;;;;;;;8.70;1.42;;;13.30;99.90;;;;;;4955142;28;20062;-85
2022/11/18 12:59:56;;;;;;;7.95;1.50;;;13.50;99.90;;;;;;4952354;28;20093;-84
2022/11/18 13:02:28;;;;;;;4.65;1.50;;;13.50;99.90;;;;;;4930210;28;20030;-84
2022/11/18 13:05:11;;;;;;;4.28;1.52;;;13.30;99.90;;;;;;4967141;28;20045;-84
2022/11/18 13:08:14;;;;;;;10.27;1.75;;;13.50;99.90;;;;;;4933145;28;20023;-84
2022/11/18 13:10:43;;;;;;;5.72;1.33;;;13.70;99.90;;;;;;4965496;28;20040;-84
2022/11/18 13:13:22;;;;;;;8.90;1.48;;;13.90;99.90;;;;;;4950968;28;20042;-84
2022/11/18 13:18:31;;;;;;;6.60;1.83;;;14.00;99.90;;;;;;4961140;28;20458;-84
2022/11/18 13:23:50;;;;;;;7.18;1.10;;;14.00;99.90;;;;;;4934154;28;20047;-84
2022/11/18 13:23:53;;;;;;;4.78;1.13;;;14.10;99.90;;;;;;4950676;28;20085;-84
2022/11/18 13:26:24;;;;;;;3.65;1.52;;;14.10;99.90;;;;;;4977694;28;20037;-84
2022/11/18 13:29:31;;;;;;;5.32;1.98;;;13.90;99.90;;;;;;4965152;28;20035;-84
2022/11/18 13:32:14;;;;;;;4.95;1.20;;;13.70;99.90;;;;;;4919968;28;20030;-84